createdAt,value
2018-12-29T00:01:48.808Z,102706.61
2018-12-29T00:04:18.817Z,102702.48
2018-12-29T00:06:50.257Z,102710.59
2018-12-29T00:09:21.522Z,102706.86
2018-12-29T00:11:56.190Z,102718.14
2018-12-29T00:14:25.405Z,102712.23
2018-12-29T00:17:06.351Z,102711.25
2018-12-29T00:19:41.074Z,102699.93
2018-12-29T00:22:08.501Z,102698.39
2018-12-29T00:24:37.833Z,102700.00
2018-12-29T00:27:07.138Z,102700.17
2018-12-29T00:29:37.081Z,102701.88
2018-12-29T00:32:27.718Z,102697.34
2018-12-29T00:35:14.963Z,102700.33
2018-12-29T00:37:47.348Z,102697.90
2018-12-29T00:40:14.628Z,102696.26
2018-12-29T00:42:49.399Z,102698.30
2018-12-29T00:45:23.234Z,102701.70
2018-12-29T00:47:52.831Z,102703.68
2018-12-29T00:50:32.176Z,102710.30
2018-12-29T00:53:06.082Z,102707.43
2018-12-29T00:55:35.520Z,102715.59
2018-12-29T00:58:05.131Z,102708.80
2018-12-29T01:00:39.904Z,102707.40
2018-12-29T01:03:11.725Z,102708.80
2018-12-29T01:05:41.160Z,102709.85
2018-12-29T01:08:10.896Z,102711.03
2018-12-29T01:10:42.240Z,102712.90
2018-12-29T01:13:14.462Z,102716.84
2018-12-29T01:15:43.960Z,102716.38
2018-12-29T01:18:16.224Z,102729.01
2018-12-29T01:21:00.639Z,102723.45
2018-12-29T01:23:30.086Z,102713.89
2018-12-29T01:26:02.964Z,102725.53
2018-12-29T01:28:35.036Z,102715.94
2018-12-29T01:31:07.264Z,102717.17
2018-12-29T01:33:36.743Z,102726.84
2018-12-29T01:36:08.492Z,102729.27
2018-12-29T01:38:35.851Z,102741.23
2018-12-29T01:41:05.327Z,102746.20
2018-12-29T01:43:48.806Z,102730.14
2018-12-29T01:46:19.327Z,102746.38
2018-12-29T01:48:50.933Z,102734.87
2018-12-29T01:51:20.130Z,102748.39
2018-12-29T01:53:52.934Z,102741.06
2018-12-29T01:56:22.230Z,102746.22
2018-12-29T01:58:52.065Z,102747.78
2018-12-29T02:01:21.503Z,102741.92
2018-12-29T02:03:51.251Z,102739.06
2018-12-29T02:06:31.755Z,102741.73
2018-12-29T02:09:02.401Z,102744.85
2018-12-29T02:11:31.844Z,102743.75
2018-12-29T02:14:04.190Z,102743.75
2018-12-29T02:16:35.915Z,102744.75
2018-12-29T02:19:07.532Z,102746.17
2018-12-29T02:21:37.380Z,102746.80
2018-12-29T02:24:07.051Z,102747.11
2018-12-29T02:26:42.903Z,102749.56
2018-12-29T02:29:19.851Z,102746.41
2018-12-29T02:31:47.923Z,102746.00
2018-12-29T02:34:57.643Z,102750.23
2018-12-29T02:37:29.936Z,102756.23
2018-12-29T02:40:01.087Z,102761.21
2018-12-29T02:42:30.616Z,102762.32
2018-12-29T02:45:07.632Z,102758.31
2018-12-29T02:47:36.956Z,102763.58
2018-12-29T02:50:08.502Z,102764.45
2018-12-29T02:52:37.724Z,102757.38
2018-12-29T02:55:11.532Z,102752.87
2018-12-29T02:57:42.762Z,102753.16
2018-12-29T03:00:12.368Z,102743.56
2018-12-29T03:02:46.014Z,102737.06
2018-12-29T03:05:18.387Z,102733.62
2018-12-29T03:07:53.321Z,102722.20
2018-12-29T03:10:25.860Z,102735.48
2018-12-29T03:12:58.655Z,102730.40
2018-12-29T03:15:30.278Z,102723.20
2018-12-29T03:18:02.257Z,102717.55
2018-12-29T03:20:34.243Z,102714.26
2018-12-29T03:23:12.787Z,102714.26
2018-12-29T03:25:42.378Z,102705.97
2018-12-29T03:28:16.212Z,102702.68
2018-12-29T03:30:48.220Z,102706.72
2018-12-29T03:33:25.930Z,102699.73
2018-12-29T03:35:55.386Z,102698.39
2018-12-29T03:38:24.963Z,102696.47
2018-12-29T03:40:54.442Z,102697.83
2018-12-29T03:43:23.875Z,102699.39
2018-12-29T03:45:53.079Z,102697.64
2018-12-29T03:48:24.997Z,102695.55
2018-12-29T03:50:54.364Z,102696.17
2018-12-29T03:53:23.911Z,102688.81
2018-12-29T03:55:56.118Z,102677.64
2018-12-29T03:58:25.731Z,102677.92
2018-12-29T04:00:57.326Z,102677.33
2018-12-29T04:03:31.103Z,102677.92
2018-12-29T04:06:03.168Z,102671.25
2018-12-29T04:08:41.875Z,102667.34
2018-12-29T04:11:11.919Z,102667.33
2018-12-29T04:13:41.893Z,102661.23
2018-12-29T04:16:11.398Z,102661.17
2018-12-29T04:18:47.034Z,102659.72
2018-12-29T04:21:19.314Z,102657.50
2018-12-29T04:23:48.850Z,102661.23
2018-12-29T04:26:25.432Z,102662.52
2018-12-29T04:28:57.625Z,102661.48
2018-12-29T04:31:27.151Z,102653.08
2018-12-29T04:34:00.505Z,102651.11
2018-12-29T04:36:32.670Z,102654.91
2018-12-29T04:39:12.157Z,102659.41
2018-12-29T04:41:44.149Z,102662.11
2018-12-29T04:44:20.517Z,102654.09
2018-12-29T04:46:50.065Z,102656.84
2018-12-29T04:49:19.978Z,102663.23
2018-12-29T04:52:09.916Z,102659.53
2018-12-29T04:54:39.480Z,102662.17
2018-12-29T04:57:08.992Z,102666.61
2018-12-29T04:59:41.701Z,102657.59
2018-12-29T05:02:11.299Z,102670.37
2018-12-29T05:04:40.838Z,102672.00
2018-12-29T05:07:10.351Z,102671.30
2018-12-29T05:10:02.778Z,102681.20
2018-12-29T05:13:36.181Z,102685.59
2018-12-29T05:16:12.852Z,102688.63
2018-12-29T05:18:37.757Z,102678.98
2018-12-29T05:21:11.998Z,102680.90
2018-12-29T05:23:41.524Z,102683.76
2018-12-29T05:26:18.571Z,102683.83
2018-12-29T05:28:55.163Z,102682.13
2018-12-29T05:31:30.190Z,102680.38
2018-12-29T05:33:59.690Z,102676.09
2018-12-29T05:36:34.512Z,102680.13
2018-12-29T05:39:05.359Z,102679.05
2018-12-29T05:42:28.335Z,102679.84
2018-12-29T05:44:57.946Z,102679.43
2018-12-29T05:47:30.460Z,102678.78
2018-12-29T05:50:01.862Z,102683.00
2018-12-29T05:52:38.820Z,102682.60
2018-12-29T05:55:08.336Z,102677.31
2018-12-29T05:57:38.709Z,102681.53
2018-12-29T06:00:10.321Z,102688.55
2018-12-29T06:02:39.729Z,102689.27
2018-12-29T06:05:15.103Z,102690.15
2018-12-29T06:07:41.927Z,102684.52
2018-12-29T06:10:16.328Z,102689.33
2018-12-29T06:12:48.420Z,102688.27
2018-12-29T06:15:20.641Z,102676.66
2018-12-29T06:18:00.071Z,102691.58
2018-12-29T06:20:29.817Z,102691.70
2018-12-29T06:22:59.130Z,102690.53
2018-12-29T06:25:34.177Z,102697.97
2018-12-29T06:28:03.848Z,102698.34
2018-12-29T06:30:42.741Z,102699.33
2018-12-29T06:33:14.341Z,102700.27
2018-12-29T06:35:50.069Z,102701.59
2018-12-29T06:38:22.518Z,102694.11
2018-12-29T06:41:00.688Z,102693.98
2018-12-29T06:43:36.091Z,102690.02
2018-12-29T06:46:08.173Z,102688.73
2018-12-29T06:48:40.449Z,102690.61
2018-12-29T06:51:14.743Z,102685.34
2018-12-29T06:53:44.106Z,102683.06
2018-12-29T06:56:19.581Z,102695.28
2018-12-29T06:58:51.554Z,102689.89
2018-12-29T07:01:34.229Z,102688.92
2018-12-29T07:04:06.609Z,102688.79
2018-12-29T07:06:36.064Z,102684.00
2018-12-29T07:09:07.253Z,102694.24
2018-12-29T07:11:38.815Z,102687.27
2018-12-29T07:14:12.752Z,102677.43
2018-12-29T07:16:42.613Z,102679.23
2018-12-29T07:19:17.179Z,102677.61
2018-12-29T07:21:47.015Z,102669.53
2018-12-29T07:24:19.078Z,102682.38
2018-12-29T07:26:48.529Z,102677.40
2018-12-29T07:29:19.296Z,102680.43
2018-12-29T07:31:49.199Z,102684.60
2018-12-29T07:34:24.557Z,102681.20
2018-12-29T07:36:56.026Z,102676.39
2018-12-29T07:39:29.107Z,102674.00
2018-12-29T07:42:03.815Z,102665.84
2018-12-29T07:44:36.721Z,102664.03
2018-12-29T07:47:06.779Z,102661.16
2018-12-29T07:49:35.960Z,102656.73
2018-12-29T07:52:08.235Z,102654.16
2018-12-29T07:54:43.051Z,102654.08
2018-12-29T07:57:15.036Z,102648.06
2018-12-29T07:59:44.521Z,102643.08
2018-12-29T08:02:19.915Z,102640.37
2018-12-29T08:04:49.655Z,102627.23
2018-12-29T08:07:18.820Z,102633.94
2018-12-29T08:09:48.541Z,102629.28
2018-12-29T08:12:18.040Z,102643.95
2018-12-29T08:14:50.500Z,102630.33
2018-12-29T08:17:20.134Z,102645.91
2018-12-29T08:19:55.408Z,102635.45
2018-12-29T08:22:24.892Z,102636.06
2018-12-29T08:24:54.527Z,102635.45
2018-12-29T08:27:24.171Z,102638.26
2018-12-29T08:29:56.679Z,102639.30
2018-12-29T08:32:26.191Z,102634.28
2018-12-29T08:34:58.569Z,102646.47
2018-12-29T08:37:28.465Z,102634.34
2018-12-29T08:40:05.665Z,102636.41
2018-12-29T08:42:37.896Z,102628.86
2018-12-29T08:45:09.286Z,102628.92
2018-12-29T08:47:44.429Z,102638.02
2018-12-29T08:50:16.985Z,102630.75
2018-12-29T08:52:49.070Z,102620.80
2018-12-29T08:55:23.425Z,102624.61
2018-12-29T08:58:00.862Z,102630.44
2018-12-29T09:00:33.330Z,102616.34
2018-12-29T09:03:07.064Z,102624.31
2018-12-29T09:05:39.709Z,102626.94
2018-12-29T09:08:10.711Z,102613.95
2018-12-29T09:10:38.437Z,102612.88
2018-12-29T09:13:08.097Z,102604.97
2018-12-29T09:15:45.243Z,102598.18
2018-12-29T09:18:14.744Z,102588.01
2018-12-29T09:20:46.689Z,102585.77
2018-12-29T09:23:14.954Z,102571.88
2018-12-29T09:25:49.340Z,102575.86
2018-12-29T09:28:18.701Z,102568.52
2018-12-29T09:30:48.170Z,102568.71
2018-12-29T09:33:19.465Z,102566.89
2018-12-29T09:35:47.353Z,102570.62
2018-12-29T09:38:22.861Z,102567.36
2018-12-29T09:40:56.646Z,102565.09
2018-12-29T09:43:26.244Z,102553.70
2018-12-29T09:45:58.445Z,102562.26
2018-12-29T09:48:28.855Z,102553.71
2018-12-29T09:51:42.221Z,102559.91
2018-12-29T09:54:09.685Z,102562.91
2018-12-29T09:56:40.568Z,102575.51
2018-12-29T09:59:10.287Z,102587.19
2018-12-29T10:01:42.028Z,102585.94
2018-12-29T10:04:11.782Z,102591.09
2018-12-29T10:06:41.146Z,102583.88
2018-12-29T10:09:13.009Z,102568.89
2018-12-29T10:11:42.795Z,102563.18
2018-12-29T10:14:19.699Z,102559.20
2018-12-29T10:16:53.404Z,102541.60
2018-12-29T10:19:25.552Z,102528.67
2018-12-29T10:22:00.906Z,102522.55
2018-12-29T10:24:30.465Z,102531.84
2018-12-29T10:27:00.711Z,102518.97
2018-12-29T10:29:29.915Z,102507.97
2018-12-29T10:32:00.879Z,102519.28
2018-12-29T10:34:36.517Z,102529.69
2018-12-29T10:37:08.686Z,102536.11
2018-12-29T10:39:38.145Z,102535.73
2018-12-29T10:42:09.542Z,102516.36
2018-12-29T10:44:38.756Z,102517.00
2018-12-29T10:47:08.516Z,102517.12
2018-12-29T10:49:40.001Z,102506.92
2018-12-29T10:52:18.454Z,102507.94
2018-12-29T10:54:48.221Z,102504.98
2018-12-29T10:57:26.844Z,102490.65
2018-12-29T10:59:59.163Z,102483.50
2018-12-29T11:02:28.797Z,102451.88
2018-12-29T11:05:18.834Z,102427.19
2018-12-29T11:07:52.029Z,102415.61
2018-12-29T11:10:22.878Z,102414.14
2018-12-29T11:12:54.554Z,102416.52
2018-12-29T11:15:26.214Z,102425.34
2018-12-29T11:17:57.805Z,102437.17
2018-12-29T11:20:32.354Z,102435.94
2018-12-29T11:23:08.468Z,102412.16
2018-12-29T11:25:40.529Z,102395.48
2018-12-29T11:28:15.189Z,102419.33
2018-12-29T11:30:44.909Z,102381.50
2018-12-29T11:33:17.224Z,102375.63
2018-12-29T11:35:49.271Z,102370.70
2018-12-29T11:38:18.903Z,102377.69
2018-12-29T11:40:55.630Z,102378.29
2018-12-29T11:43:24.778Z,102388.56
2018-12-29T11:45:55.096Z,102367.33
2018-12-29T11:48:27.282Z,102373.17
2018-12-29T11:50:57.011Z,102370.06
2018-12-29T11:53:35.094Z,102363.88
2018-12-29T11:56:05.087Z,102372.87
2018-12-29T11:58:34.489Z,102353.30
2018-12-29T12:01:04.456Z,102351.42
2018-12-29T12:03:37.733Z,102367.28
2018-12-29T12:06:25.146Z,102373.80
2018-12-29T12:09:00.089Z,102358.58
2018-12-29T12:11:27.456Z,102362.89
2018-12-29T12:13:59.177Z,102364.09
2018-12-29T12:16:28.449Z,102371.84
2018-12-29T12:19:02.460Z,102363.15
2018-12-29T12:22:05.304Z,102360.62
2018-12-29T12:24:34.669Z,102351.73
2018-12-29T12:27:06.216Z,102363.41
2018-12-29T12:29:38.654Z,102361.81
2018-12-29T12:32:06.993Z,102367.81
2018-12-29T12:34:39.727Z,102361.38
2018-12-29T12:37:12.275Z,102352.84
2018-12-29T12:39:42.011Z,102339.35
2018-12-29T12:42:14.609Z,102327.81
2018-12-29T12:44:44.405Z,102311.41
2018-12-29T12:47:13.749Z,102300.14
2018-12-29T12:49:45.325Z,102306.73
2018-12-29T12:52:16.086Z,102307.44
2018-12-29T12:54:48.018Z,102304.19
2018-12-29T12:57:17.633Z,102286.49
2018-12-29T12:59:51.559Z,102259.21
2018-12-29T13:02:20.462Z,102251.14
2018-12-29T13:04:55.375Z,102247.91
2018-12-29T13:07:36.815Z,102234.74
2018-12-29T13:10:04.419Z,102239.02
2018-12-29T13:12:34.223Z,102240.69
2018-12-29T13:15:06.293Z,102233.01
2018-12-29T13:17:37.652Z,102239.92
2018-12-29T13:20:07.292Z,102227.98
2018-12-29T13:22:39.298Z,102211.61
2018-12-29T13:25:08.871Z,102206.53
2018-12-29T13:27:43.627Z,102209.09
2018-12-29T13:30:16.689Z,102191.73
2018-12-29T13:32:53.649Z,102180.62
2018-12-29T13:35:23.209Z,102177.06
2018-12-29T13:37:52.733Z,102194.86
2018-12-29T13:40:26.831Z,102202.17
2018-12-29T13:43:05.350Z,102192.16
2018-12-29T13:45:37.235Z,102189.01
2018-12-29T13:48:07.013Z,102201.12
2018-12-29T13:50:36.671Z,102173.47
2018-12-29T13:53:06.198Z,102173.15
2018-12-29T13:55:35.925Z,102159.73
2018-12-29T13:58:07.678Z,102174.98
2018-12-29T14:00:40.566Z,102165.98
2018-12-29T14:03:26.680Z,102174.19
2018-12-29T14:05:58.871Z,102167.08
2018-12-29T14:08:28.415Z,102157.81
2018-12-29T14:10:57.598Z,102180.88
2018-12-29T14:13:26.839Z,102186.27
2018-12-29T14:15:56.707Z,102178.86
2018-12-29T14:18:29.840Z,102195.80
2018-12-29T14:21:07.214Z,102190.67
2018-12-29T14:23:36.779Z,102199.87
2018-12-29T14:26:06.657Z,102196.30
2018-12-29T14:28:38.753Z,102201.22
2018-12-29T14:31:13.845Z,102191.21
2018-12-29T14:33:43.940Z,102208.88
2018-12-29T14:36:14.989Z,102213.27
2018-12-29T14:38:49.524Z,102221.67
2018-12-29T14:41:19.285Z,102221.20
2018-12-29T14:43:48.489Z,102211.27
2018-12-29T14:46:20.848Z,102205.00
2018-12-29T14:48:49.973Z,102195.16
2018-12-29T14:51:19.837Z,102192.69
2018-12-29T14:53:49.283Z,102192.77
2018-12-29T14:56:24.174Z,102192.44
2018-12-29T14:58:53.693Z,102202.13
2018-12-29T15:01:29.002Z,102204.09
2018-12-29T15:04:01.622Z,102197.16
2018-12-29T15:06:30.947Z,102196.25
2018-12-29T15:09:03.504Z,102211.58
2018-12-29T15:11:33.061Z,102214.62
2018-12-29T15:14:04.565Z,102211.72
2018-12-29T15:16:35.062Z,102206.63
2018-12-29T15:19:09.018Z,102217.42
2018-12-29T15:21:44.407Z,102223.78
2018-12-29T15:24:21.155Z,102220.23
2018-12-29T15:26:53.100Z,102215.30
2018-12-29T15:29:29.203Z,102216.66
2018-12-29T15:31:58.736Z,102205.20
2018-12-29T15:34:32.612Z,102206.81
2018-12-29T15:37:01.940Z,102192.13
2018-12-29T15:39:34.132Z,102184.23
2018-12-29T15:42:04.005Z,102195.04
2018-12-29T15:44:33.784Z,102199.48
2018-12-29T15:47:07.592Z,102197.48
2018-12-29T15:49:40.408Z,102184.72
2018-12-29T15:52:10.113Z,102182.92
2018-12-29T15:54:42.360Z,102192.95
2018-12-29T15:57:14.693Z,102184.55
2018-12-29T15:59:47.318Z,102173.26
2018-12-29T16:02:16.277Z,102163.71
2018-12-29T16:04:45.191Z,102161.70
2018-12-29T16:07:15.439Z,102171.07
2018-12-29T16:09:44.379Z,102165.06
2018-12-29T16:12:13.292Z,102156.78
2018-12-29T16:14:42.167Z,102153.59
2018-12-29T16:17:11.113Z,102147.53
2018-12-29T16:19:39.997Z,102149.14
2018-12-29T16:22:08.929Z,102140.55
2018-12-29T16:24:37.839Z,102136.50
2018-12-29T16:27:07.421Z,102140.27
2018-12-29T16:29:36.352Z,102136.31
2018-12-29T16:32:05.295Z,102125.41
2018-12-29T16:34:34.194Z,102124.63
2018-12-29T16:37:03.172Z,102126.10
2018-12-29T16:39:31.989Z,102116.05
2018-12-29T16:42:00.904Z,102126.55
2018-12-29T16:44:29.796Z,102124.16
2018-12-29T16:46:58.702Z,102123.56
2018-12-29T16:49:27.575Z,102124.63
2018-12-29T16:51:56.480Z,102120.87
2018-12-29T16:54:25.372Z,102126.35
2018-12-29T16:56:54.282Z,102120.29
2018-12-29T16:59:23.194Z,102121.03
2018-12-29T17:01:52.122Z,102125.59
2018-12-29T17:04:21.049Z,102124.79
2018-12-29T17:06:49.914Z,102118.51
2018-12-29T17:09:18.792Z,102120.45
2018-12-29T17:11:52.332Z,102109.41
2018-12-29T17:14:16.628Z,102124.09
2018-12-29T17:16:45.545Z,102123.16
2018-12-29T17:19:15.054Z,102113.41
2018-12-29T17:21:43.338Z,102109.83
2018-12-29T17:24:12.229Z,102109.55
2018-12-29T17:26:41.134Z,102119.02
2018-12-29T17:29:10.010Z,102115.63
2018-12-29T17:31:38.929Z,102110.31
2018-12-29T17:34:07.846Z,102116.59
2018-12-29T17:36:41.893Z,102111.00
2018-12-29T17:39:07.102Z,102114.92
2018-12-29T17:41:36.011Z,102115.63
2018-12-29T17:44:04.917Z,102101.97
2018-12-29T17:46:33.815Z,102110.00
2018-12-29T17:49:02.727Z,102116.08
2018-12-29T17:51:31.609Z,102115.89
2018-12-29T17:54:00.483Z,102120.88
2018-12-29T17:56:29.405Z,102114.50
2018-12-29T17:58:58.276Z,102120.20
2018-12-29T18:01:27.206Z,102119.58
2018-12-29T18:03:56.122Z,102124.74
2018-12-29T18:06:25.006Z,102130.98
2018-12-29T18:08:53.943Z,102131.89
2018-12-29T18:11:22.841Z,102133.94
2018-12-29T18:13:51.723Z,102141.58
2018-12-29T18:16:20.592Z,102135.57
2018-12-29T18:18:49.474Z,102130.45
2018-12-29T18:21:18.400Z,102123.88
2018-12-29T18:23:47.275Z,102123.92
2018-12-29T18:26:16.180Z,102131.99
2018-12-29T18:28:45.118Z,102127.73
2018-12-29T18:31:13.939Z,102143.65
2018-12-29T18:33:42.840Z,102137.27
2018-12-29T18:36:11.739Z,102151.58
2018-12-29T18:38:40.590Z,102146.83
2018-12-29T18:41:09.514Z,102154.83
2018-12-29T18:43:38.396Z,102158.63
2018-12-29T18:46:07.359Z,102162.47
2018-12-29T18:48:36.288Z,102173.44
2018-12-29T18:51:05.193Z,102169.57
2018-12-29T18:53:34.069Z,102172.44
2018-12-29T18:56:03.042Z,102183.89
2018-12-29T18:58:31.980Z,102179.44
2018-12-29T19:01:00.900Z,102192.25
2018-12-29T19:03:29.814Z,102195.05
2018-12-29T19:05:58.704Z,102196.22
2018-12-29T19:08:27.593Z,102191.28
2018-12-29T19:10:56.525Z,102201.62
2018-12-29T19:13:25.442Z,102203.08
2018-12-29T19:15:54.330Z,102203.56
2018-12-29T19:18:23.242Z,102207.62
2018-12-29T19:20:52.146Z,102203.67
2018-12-29T19:23:21.041Z,102202.41
2018-12-29T19:25:49.960Z,102198.34
2018-12-29T19:28:18.827Z,102203.57
2018-12-29T19:30:47.808Z,102219.43
2018-12-29T19:33:16.683Z,102215.27
2018-12-29T19:35:45.563Z,102211.31
2018-12-29T19:38:14.476Z,102214.72
2018-12-29T19:40:43.379Z,102215.08
2018-12-29T19:43:12.358Z,102216.17
2018-12-29T19:45:41.191Z,102229.33
2018-12-29T19:48:10.081Z,102227.68
2018-12-29T19:50:39.008Z,102226.81
2018-12-29T19:53:07.922Z,102224.00
2018-12-29T19:55:36.829Z,102215.91
2018-12-29T19:58:05.774Z,102234.73
2018-12-29T20:00:34.713Z,102241.41
2018-12-29T20:03:03.617Z,102245.78
2018-12-29T20:05:32.515Z,102236.48
2018-12-29T20:08:01.372Z,102242.02
2018-12-29T20:10:30.285Z,102239.80
2018-12-29T20:12:59.149Z,102248.01
2018-12-29T20:15:28.046Z,102252.55
2018-12-29T20:17:57.008Z,102265.62
2018-12-29T20:20:25.851Z,102263.75
2018-12-29T20:22:54.739Z,102277.79
2018-12-29T20:25:23.645Z,102280.31
2018-12-29T20:27:52.579Z,102280.88
2018-12-29T20:30:21.407Z,102279.83
2018-12-29T20:32:58.781Z,102289.78
2018-12-29T20:35:19.331Z,102292.39
2018-12-29T20:37:48.268Z,102285.91
2018-12-29T20:40:17.222Z,102292.19
2018-12-29T20:42:46.138Z,102289.19
2018-12-29T20:45:15.036Z,102300.50
2018-12-29T20:47:43.957Z,102296.44
2018-12-29T20:50:12.821Z,102311.71
2018-12-29T20:52:41.740Z,102298.30
2018-12-29T20:55:10.643Z,102302.45
2018-12-29T20:57:39.533Z,102302.62
2018-12-29T21:00:09.822Z,102306.03
2018-12-29T21:02:38.725Z,102295.78
2018-12-29T21:05:07.637Z,102291.62
2018-12-29T21:07:36.530Z,102304.58
2018-12-29T21:10:05.525Z,102295.86
2018-12-29T21:12:35.676Z,102295.59
2018-12-29T21:15:03.374Z,102302.84
2018-12-29T21:17:32.299Z,102303.72
2018-12-29T21:20:01.237Z,102305.81
2018-12-29T21:22:30.159Z,102298.09
2018-12-29T21:24:59.121Z,102300.72
2018-12-29T21:27:28.034Z,102302.55
2018-12-29T21:29:56.934Z,102297.62
2018-12-29T21:32:25.893Z,102306.12
2018-12-29T21:34:55.014Z,102312.41
2018-12-29T21:37:23.924Z,102309.98
2018-12-29T21:39:52.819Z,102315.48
2018-12-29T21:42:21.707Z,102334.42
2018-12-29T21:44:50.626Z,102323.90
2018-12-29T21:47:19.518Z,102325.25
2018-12-29T21:49:48.420Z,102317.31
2018-12-29T21:52:17.330Z,102305.83
2018-12-29T21:54:46.220Z,102312.50
2018-12-29T21:57:15.170Z,102315.69
2018-12-29T21:59:44.048Z,102319.34
2018-12-29T22:02:12.973Z,102323.41
2018-12-29T22:04:41.896Z,102326.52
2018-12-29T22:07:10.827Z,102343.80
2018-12-29T22:09:39.764Z,102345.73
2018-12-29T22:12:08.702Z,102357.64
2018-12-29T22:14:37.600Z,102354.72
2018-12-29T22:17:06.567Z,102356.95
2018-12-29T22:19:35.467Z,102357.34
2018-12-29T22:22:04.376Z,102354.24
2018-12-29T22:24:33.301Z,102357.91
2018-12-29T22:27:02.210Z,102352.50
2018-12-29T22:29:31.120Z,102351.98
2018-12-29T22:32:00.013Z,102358.96
2018-12-29T22:34:28.963Z,102361.45
2018-12-29T22:36:57.812Z,102365.94
2018-12-29T22:39:26.731Z,102367.77
2018-12-29T22:41:55.606Z,102374.62
2018-12-29T22:44:24.500Z,102377.23
2018-12-29T22:46:53.363Z,102375.41
2018-12-29T22:49:22.255Z,102381.69
2018-12-29T22:51:51.171Z,102381.48
2018-12-29T22:54:20.096Z,102388.06
2018-12-29T22:56:48.975Z,102387.28
2018-12-29T22:59:17.891Z,102380.03
2018-12-29T23:01:46.796Z,102379.16
2018-12-29T23:04:15.897Z,102390.29
2018-12-29T23:06:44.786Z,102398.19
2018-12-29T23:09:13.682Z,102407.66
2018-12-29T23:11:42.565Z,102411.62
2018-12-29T23:14:11.587Z,102413.16
2018-12-29T23:16:40.376Z,102411.45
2018-12-29T23:19:09.329Z,102413.37
2018-12-29T23:21:38.261Z,102426.20
2018-12-29T23:24:07.243Z,102426.64
2018-12-29T23:26:36.130Z,102424.98
2018-12-29T23:29:05.108Z,102421.09
2018-12-29T23:31:33.997Z,102415.90
2018-12-29T23:34:02.894Z,102430.00
2018-12-29T23:36:31.800Z,102435.23
2018-12-29T23:39:00.719Z,102444.67
2018-12-29T23:41:29.628Z,102449.41
2018-12-29T23:43:58.672Z,102453.00
2018-12-29T23:46:27.474Z,102457.22
2018-12-29T23:48:56.384Z,102458.88
2018-12-29T23:51:25.282Z,102465.25
2018-12-29T23:53:54.231Z,102466.28
2018-12-29T23:56:23.107Z,102465.73
2018-12-29T23:58:51.992Z,102466.22
